Terminal Aerodrome Forecast
Issued by NWS Des Moines, IA

Home | Current Version | Previous Version | Text Only | Print | Product List | Glossary On
Versions: 1 2 3 4 5 6 7 8 9 10 11 12 13
000
FTUS43 KDMX 161727
TAFALO
TAF
KALO 161727Z 1618/1718 09009KT 3SM -FZRA BR OVC004
     FM170100 06007KT 1SM -FZRA BR OVC004
     FM170600 01006KT 1SM -FZRA BR OVC004
     FM170800 35006KT 2SM BR OVC004=

USA.gov is the U.S. government's official web portal to all federal, state and local government web resources and services.